Time;durP1;ratioP1;P1;durP2;ratioP2;P2;SDS_P1;SDS_P2;PMS_P1;PMS_P2;Temp;Humidity;BMP_temperature;BMP_pressure;BME280_temperature;BME280_humidity;BME280_pressure;Samples;Min_cycle;Max_cycle;Signal;HPM_P1;HPM_P2
2024/02/19 00:00:12;;;;;;;20.85;18.95;;;;;;;;;;5007244;28;20034;-50
2024/02/19 00:02:38;;;;;;;20.83;18.92;;;;;;;;;;5005872;28;20514;-47
2024/02/19 00:05:06;;;;;;;20.45;18.55;;;;;;;;;;5007438;28;20400;-46
2024/02/19 00:07:32;;;;;;;20.90;19.00;;;;;;;;;;5007516;28;20026;-44
2024/02/19 00:09:58;;;;;;;20.95;19.05;;;;;;;;;;5005793;28;20169;-46
2024/02/19 00:12:23;;;;;;;21.15;19.25;;;;;;;;;;5005925;28;20116;-45
2024/02/19 00:14:49;;;;;;;21.10;19.20;;;;;;;;;;5007386;28;20030;-48
2024/02/19 00:17:15;;;;;;;21.23;19.33;;;;;;;;;;5005657;28;20025;-45
2024/02/19 00:19:41;;;;;;;21.15;19.25;;;;;;;;;;5007001;28;20026;-46
2024/02/19 00:22:08;;;;;;;21.23;19.33;;;;;;;;;;5005336;28;20037;-49
2024/02/19 00:24:34;;;;;;;21.00;19.10;;;;;;;;;;5007000;28;20033;-45
2024/02/19 00:27:00;;;;;;;19.77;17.98;;;;;;;;;;5007141;28;20026;-45
2024/02/19 00:29:26;;;;;;;19.60;17.80;;;;;;;;;;5007060;28;20412;-46
2024/02/19 00:31:52;;;;;;;19.52;17.73;;;;;;;;;;5006697;28;20108;-46
2024/02/19 00:34:18;;;;;;;19.58;17.77;;;;;;;;;;5006953;28;20022;-48
2024/02/19 00:36:44;;;;;;;19.80;18.00;;;;;;;;;;5006913;28;20125;-44
2024/02/19 00:39:10;;;;;;;19.75;17.95;;;;;;;;;;5006406;28;20093;-47
2024/02/19 00:41:39;;;;;;;19.15;17.35;;;;;;;;;;5006690;28;20034;-47
2024/02/19 00:44:05;;;;;;;19.05;17.25;;;;;;;;;;5029277;22;20033;-52
2024/02/19 00:46:31;;;;;;;18.75;16.95;;;;;;;;;;5047517;28;20033;-55
2024/02/19 00:48:57;;;;;;;18.55;16.75;;;;;;;;;;5051142;28;20395;-53
2024/02/19 00:51:23;;;;;;;19.35;17.55;;;;;;;;;;5054084;28;20021;-54
2024/02/19 00:53:49;;;;;;;19.50;17.60;;;;;;;;;;5052471;28;20033;-55
2024/02/19 00:56:15;;;;;;;20.98;18.85;;;;;;;;;;5057622;28;20094;-54
2024/02/19 00:58:41;;;;;;;20.25;17.65;;;;;;;;;;5058116;28;20025;-54
2024/02/19 01:01:07;;;;;;;18.50;16.60;;;;;;;;;;5055159;28;20105;-53
2024/02/19 01:03:33;;;;;;;18.92;15.93;;;;;;;;;;5052573;28;20025;-48
2024/02/19 01:05:59;;;;;;;16.40;14.52;;;;;;;;;;5052162;28;20666;-54
2024/02/19 01:08:25;;;;;;;18.13;15.10;;;;;;;;;;5051374;28;20087;-50
2024/02/19 01:10:51;;;;;;;16.00;14.18;;;;;;;;;;5052508;28;20049;-54
2024/02/19 01:13:17;;;;;;;15.20;13.20;;;;;;;;;;5051855;28;20390;-53
2024/02/19 01:15:43;;;;;;;17.25;14.70;;;;;;;;;;5051951;28;20337;-52
2024/02/19 01:18:09;;;;;;;17.10;13.40;;;;;;;;;;5051771;28;20505;-55
2024/02/19 01:20:36;;;;;;;14.77;12.02;;;;;;;;;;5051663;28;20398;-54
2024/02/19 01:23:02;;;;;;;14.60;11.68;;;;;;;;;;5050298;28;20017;-55
2024/02/19 01:25:28;;;;;;;15.45;12.60;;;;;;;;;;5051471;28;20021;-55
2024/02/19 01:27:54;;;;;;;16.55;12.02;;;;;;;;;;5051337;28;20154;-55
2024/02/19 01:30:20;;;;;;;14.60;11.50;;;;;;;;;;5051391;28;20021;-55
2024/02/19 01:32:46;;;;;;;14.50;11.30;;;;;;;;;;5051268;28;20144;-53
2024/02/19 01:35:12;;;;;;;14.35;10.80;;;;;;;;;;5051310;28;20178;-54
2024/02/19 01:37:39;;;;;;;14.02;10.18;;;;;;;;;;5051270;28;20029;-55
2024/02/19 01:40:09;;;;;;;14.43;10.52;;;;;;;;;;5051424;28;20622;-55
2024/02/19 01:42:35;;;;;;;14.20;10.40;;;;;;;;;;5049813;28;20372;-54
2024/02/19 01:45:01;;;;;;;14.13;10.18;;;;;;;;;;5051054;28;20061;-53
2024/02/19 01:47:28;;;;;;;15.02;10.50;;;;;;;;;;5051200;28;20029;-52
2024/02/19 01:49:54;;;;;;;14.70;10.57;;;;;;;;;;5051075;28;20027;-57
2024/02/19 01:52:20;;;;;;;15.45;11.43;;;;;;;;;;5050949;28;20143;-55
2024/02/19 01:54:46;;;;;;;14.55;11.23;;;;;;;;;;5051028;28;20542;-53
2024/02/19 01:57:12;;;;;;;15.07;11.60;;;;;;;;;;5050623;28;20068;-54
2024/02/19 01:59:40;;;;;;;14.70;11.30;;;;;;;;;;5050679;28;20040;-53
2024/02/19 02:02:06;;;;;;;16.80;11.75;;;;;;;;;;5050827;28;20047;-51
2024/02/19 02:04:32;;;;;;;15.40;11.85;;;;;;;;;;5050951;28;20111;-52
2024/02/19 02:06:58;;;;;;;22.60;13.57;;;;;;;;;;5049628;28;20033;-53
2024/02/19 02:09:25;;;;;;;15.48;11.13;;;;;;;;;;5051038;28;20407;-51
2024/02/19 02:11:50;;;;;;;14.20;10.30;;;;;;;;;;5050942;28;20475;-56
2024/02/19 02:14:16;;;;;;;14.50;10.30;;;;;;;;;;5050863;28;20108;-53
2024/02/19 02:16:42;;;;;;;18.30;11.35;;;;;;;;;;5050911;28;20033;-54
2024/02/19 02:19:10;;;;;;;13.95;9.68;;;;;;;;;;5049724;28;20552;-53
2024/02/19 02:21:40;;;;;;;13.82;9.32;;;;;;;;;;5050702;28;20482;-54
2024/02/19 02:24:06;;;;;;;15.68;9.70;;;;;;;;;;5050492;28;20025;-53
2024/02/19 02:26:32;;;;;;;16.50;12.00;;;;;;;;;;5049077;28;20024;-52
2024/02/19 02:28:58;;;;;;;13.80;9.30;;;;;;;;;;5050696;28;20033;-52
2024/02/19 02:31:24;;;;;;;14.68;9.40;;;;;;;;;;5050447;28;20025;-55
2024/02/19 02:33:51;;;;;;;15.45;9.55;;;;;;;;;;5049001;28;20049;-52
2024/02/19 02:36:17;;;;;;;14.10;9.15;;;;;;;;;;5050238;28;20087;-54
2024/02/19 02:38:43;;;;;;;13.75;9.07;;;;;;;;;;5050142;28;20029;-55
2024/02/19 02:41:09;;;;;;;14.00;9.63;;;;;;;;;;5050050;28;20530;-54
2024/02/19 02:43:34;;;;;;;13.68;8.80;;;;;;;;;;5049819;28;20044;-52
2024/02/19 02:46:01;;;;;;;13.60;8.80;;;;;;;;;;5048692;28;20029;-52
2024/02/19 02:48:27;;;;;;;13.65;8.80;;;;;;;;;;5050138;28;20116;-54
2024/02/19 02:50:53;;;;;;;13.65;8.40;;;;;;;;;;5049950;28;20063;-53
2024/02/19 02:53:21;;;;;;;13.57;8.57;;;;;;;;;;5049705;28;20099;-53
2024/02/19 02:55:47;;;;;;;16.70;10.35;;;;;;;;;;5049717;28;20023;-52
2024/02/19 02:58:13;;;;;;;14.48;10.05;;;;;;;;;;5049669;28;20434;-53
2024/02/19 03:00:39;;;;;;;13.90;8.93;;;;;;;;;;5049836;28;20025;-53
2024/02/19 03:03:05;;;;;;;13.77;8.95;;;;;;;;;;5049607;28;20060;-54
2024/02/19 03:05:31;;;;;;;13.60;8.50;;;;;;;;;;5048348;28;20054;-50
2024/02/19 03:07:57;;;;;;;13.65;8.80;;;;;;;;;;5049505;28;20459;-53
2024/02/19 03:10:23;;;;;;;13.80;8.93;;;;;;;;;;5048749;28;20040;-55
2024/02/19 03:12:48;;;;;;;13.52;8.45;;;;;;;;;;5048422;28;20531;-55
2024/02/19 03:15:14;;;;;;;13.50;8.30;;;;;;;;;;5049659;28;20025;-54
2024/02/19 03:17:40;;;;;;;13.35;8.15;;;;;;;;;;5049902;28;20094;-54
2024/02/19 03:20:12;;;;;;;13.20;8.02;;;;;;;;;;5049553;28;20033;-51
2024/02/19 03:22:39;;;;;;;15.10;9.73;;;;;;;;;;5049347;28;20090;-56
2024/02/19 03:25:06;;;;;;;13.52;8.18;;;;;;;;;;5049357;28;20029;-53
2024/02/19 03:27:32;;;;;;;13.40;8.23;;;;;;;;;;5049311;28;20398;-51
2024/02/19 03:29:58;;;;;;;13.45;8.10;;;;;;;;;;5049275;28;20032;-54
2024/02/19 03:32:24;;;;;;;13.80;8.80;;;;;;;;;;5048823;28;20074;-54
2024/02/19 03:34:50;;;;;;;13.57;8.52;;;;;;;;;;5049113;28;20442;-52
2024/02/19 03:37:16;;;;;;;13.55;8.73;;;;;;;;;;5048005;28;20036;-53
2024/02/19 03:39:44;;;;;;;13.57;8.57;;;;;;;;;;5049458;28;20029;-52
2024/02/19 03:42:10;;;;;;;13.63;8.87;;;;;;;;;;5049149;28;20025;-53
2024/02/19 03:44:36;;;;;;;13.65;8.70;;;;;;;;;;5048904;28;20112;-53
2024/02/19 03:47:02;;;;;;;20.42;9.20;;;;;;;;;;5048931;28;20085;-53
2024/02/19 03:49:28;;;;;;;13.90;9.10;;;;;;;;;;5049021;28;20478;-55
2024/02/19 03:51:54;;;;;;;13.63;8.80;;;;;;;;;;5048864;28;20025;-54
2024/02/19 03:54:20;;;;;;;13.68;8.88;;;;;;;;;;5049221;28;20025;-50
2024/02/19 03:56:46;;;;;;;13.93;9.70;;;;;;;;;;5049109;28;20475;-54
2024/02/19 03:59:12;;;;;;;15.75;10.18;;;;;;;;;;5048992;28;20031;-53
2024/02/19 04:01:38;;;;;;;13.63;8.90;;;;;;;;;;5047589;28;20024;-51
2024/02/19 04:04:04;;;;;;;13.68;8.98;;;;;;;;;;5048579;28;20033;-53
2024/02/19 04:06:30;;;;;;;14.02;9.10;;;;;;;;;;5048560;28;20107;-51
2024/02/19 04:08:56;;;;;;;13.68;8.90;;;;;;;;;;5048752;28;20120;-53
2024/02/19 04:11:22;;;;;;;13.68;8.85;;;;;;;;;;5048644;28;20526;-54
2024/02/19 04:13:48;;;;;;;13.70;8.90;;;;;;;;;;5048700;28;20025;-54
2024/02/19 04:16:14;;;;;;;13.63;8.70;;;;;;;;;;5047193;28;20498;-49
2024/02/19 04:18:40;;;;;;;13.50;8.40;;;;;;;;;;5048581;28;20044;-50
2024/02/19 04:21:06;;;;;;;13.55;8.45;;;;;;;;;;5048747;28;20032;-52
2024/02/19 04:23:32;;;;;;;17.10;8.70;;;;;;;;;;5052658;28;20166;-52
2024/02/19 04:25:58;;;;;;;13.45;8.20;;;;;;;;;;5052565;28;20108;-53
2024/02/19 04:28:24;;;;;;;13.43;8.20;;;;;;;;;;5051245;28;20121;-52
2024/02/19 04:30:50;;;;;;;13.40;8.02;;;;;;;;;;5047799;28;20017;-52
2024/02/19 04:33:16;;;;;;;13.32;7.90;;;;;;;;;;5051867;28;20013;-53
2024/02/19 04:35:42;;;;;;;13.35;7.97;;;;;;;;;;5067949;28;20503;-52
2024/02/19 04:38:08;;;;;;;14.38;8.50;;;;;;;;;;5043847;28;20033;-54
2024/02/19 04:40:34;;;;;;;13.05;7.68;;;;;;;;;;5032666;28;20104;-54
2024/02/19 04:43:00;;;;;;;13.05;7.63;;;;;;;;;;5050258;28;20033;-55
2024/02/19 04:45:26;;;;;;;13.07;7.68;;;;;;;;;;5052295;28;20036;-55
2024/02/19 04:47:52;;;;;;;13.07;7.60;;;;;;;;;;5052391;28;20029;-54
2024/02/19 04:50:18;;;;;;;14.20;7.82;;;;;;;;;;5051046;28;20036;-56
2024/02/19 04:52:43;;;;;;;12.80;7.50;;;;;;;;;;5050977;28;20017;-52
2024/02/19 04:55:10;;;;;;;12.45;7.22;;;;;;;;;;5052413;28;20029;-52
2024/02/19 04:57:35;;;;;;;13.27;7.78;;;;;;;;;;5051132;28;20021;-52
2024/02/19 05:00:01;;;;;;;13.25;7.75;;;;;;;;;;5052625;28;20887;-51
2024/02/19 05:02:27;;;;;;;13.07;7.63;;;;;;;;;;5052361;28;20040;-54
2024/02/19 05:04:53;;;;;;;13.02;7.70;;;;;;;;;;5052136;28;20032;-57
2024/02/19 05:07:19;;;;;;;12.48;7.28;;;;;;;;;;5051998;28;20025;-53
2024/02/19 05:09:45;;;;;;;12.80;7.43;;;;;;;;;;5052001;28;20435;-53
2024/02/19 05:12:12;;;;;;;12.45;7.25;;;;;;;;;;5051805;28;20035;-51
2024/02/19 05:14:38;;;;;;;13.15;7.63;;;;;;;;;;5051792;28;20432;-55
2024/02/19 05:17:04;;;;;;;12.55;7.30;;;;;;;;;;5051506;28;20121;-53
2024/02/19 05:19:30;;;;;;;12.57;7.30;;;;;;;;;;5051758;28;20399;-52
2024/02/19 05:21:56;;;;;;;12.18;7.10;;;;;;;;;;5051434;28;20401;-53
2024/02/19 05:24:22;;;;;;;12.35;7.43;;;;;;;;;;5050360;28;20124;-54
2024/02/19 05:26:49;;;;;;;12.05;7.00;;;;;;;;;;5051891;28;20442;-51
2024/02/19 05:29:15;;;;;;;12.13;7.00;;;;;;;;;;5052019;28;20622;-52
2024/02/19 05:31:41;;;;;;;12.48;7.20;;;;;;;;;;5051921;28;20033;-53
2024/02/19 05:34:08;;;;;;;11.90;6.90;;;;;;;;;;5050265;28;20025;-56
2024/02/19 05:36:34;;;;;;;12.95;7.20;;;;;;;;;;5051297;28;20551;-54
2024/02/19 05:39:01;;;;;;;11.68;6.82;;;;;;;;;;5049685;28;20097;-54
2024/02/19 05:41:27;;;;;;;10.57;6.20;;;;;;;;;;5049827;28;20566;-54
2024/02/19 05:43:53;;;;;;;10.25;6.00;;;;;;;;;;5051034;28;20118;-53
2024/02/19 05:46:20;;;;;;;10.35;6.10;;;;;;;;;;5051342;28;20379;-55
2024/02/19 05:48:46;;;;;;;10.38;6.10;;;;;;;;;;5051435;28;20021;-53
2024/02/19 05:51:12;;;;;;;10.13;6.00;;;;;;;;;;5051205;28;20032;-52
2024/02/19 05:53:40;;;;;;;9.70;5.72;;;;;;;;;;5051446;28;20025;-54
2024/02/19 05:56:08;;;;;;;13.10;7.00;;;;;;;;;;5034924;28;20025;-51
2024/02/19 05:58:34;;;;;;;9.65;5.75;;;;;;;;;;5031169;28;20104;-53
2024/02/19 06:01:00;;;;;;;9.70;5.70;;;;;;;;;;5031263;28;20043;-53
2024/02/19 06:03:26;;;;;;;9.93;5.95;;;;;;;;;;5030837;28;20472;-53
2024/02/19 06:05:52;;;;;;;9.60;5.65;;;;;;;;;;5046506;28;20026;-55
2024/02/19 06:08:19;;;;;;;9.48;5.60;;;;;;;;;;5030903;28;20033;-53
2024/02/19 06:10:45;;;;;;;10.45;6.65;;;;;;;;;;5031244;28;20440;-53
2024/02/19 06:13:12;;;;;;;10.13;6.00;;;;;;;;;;5031115;28;20029;-51
2024/02/19 06:15:38;;;;;;;9.80;5.80;;;;;;;;;;5030982;28;20025;-53
2024/02/19 06:18:04;;;;;;;9.90;5.80;;;;;;;;;;5030782;28;20125;-56
2024/02/19 06:20:30;;;;;;;10.05;5.93;;;;;;;;;;5045829;28;20108;-53
2024/02/19 06:22:56;;;;;;;10.00;5.90;;;;;;;;;;5030325;28;20538;-53
2024/02/19 06:25:22;;;;;;;10.18;6.00;;;;;;;;;;5030517;28;20033;-51
2024/02/19 06:27:48;;;;;;;10.50;6.10;;;;;;;;;;5030460;28;20108;-53
2024/02/19 06:30:14;;;;;;;10.18;6.00;;;;;;;;;;5030290;28;20021;-53
2024/02/19 06:32:40;;;;;;;11.05;6.45;;;;;;;;;;5029884;28;20055;-52
2024/02/19 06:35:07;;;;;;;10.10;6.00;;;;;;;;;;5030257;28;20459;-54
2024/02/19 06:37:33;;;;;;;10.43;6.13;;;;;;;;;;5030434;28;20029;-56
2024/02/19 06:39:59;;;;;;;10.13;6.00;;;;;;;;;;5030264;28;20025;-54
2024/02/19 06:42:25;;;;;;;10.63;6.20;;;;;;;;;;5045582;28;20030;-55
2024/02/19 06:44:51;;;;;;;10.60;6.25;;;;;;;;;;5030843;28;20103;-55
2024/02/19 06:47:17;;;;;;;10.25;6.00;;;;;;;;;;5030114;28;20387;-56
2024/02/19 06:49:43;;;;;;;10.38;6.07;;;;;;;;;;5029871;28;20149;-58
2024/02/19 06:52:09;;;;;;;11.13;6.97;;;;;;;;;;5029921;28;20029;-56
2024/02/19 06:54:35;;;;;;;14.57;7.18;;;;;;;;;;5031707;28;20052;-54
2024/02/19 06:57:02;;;;;;;11.23;6.60;;;;;;;;;;5029756;28;20049;-52
2024/02/19 06:59:30;;;;;;;10.00;5.90;;;;;;;;;;5029627;28;20068;-56
2024/02/19 07:01:56;;;;;;;9.25;5.45;;;;;;;;;;5029534;28;20026;-55
2024/02/19 07:04:22;;;;;;;9.60;5.70;;;;;;;;;;5029846;28;20112;-56
2024/02/19 07:06:48;;;;;;;10.02;5.93;;;;;;;;;;5029483;28;20034;-53
2024/02/19 07:09:14;;;;;;;9.93;5.90;;;;;;;;;;5029714;28;20544;-52
2024/02/19 07:11:40;;;;;;;9.90;5.90;;;;;;;;;;5049641;28;20032;-51
2024/02/19 07:14:06;;;;;;;10.30;6.10;;;;;;;;;;5049243;28;20032;-56
2024/02/19 07:16:32;;;;;;;10.52;6.20;;;;;;;;;;5049285;28;20033;-51
2024/02/19 07:18:59;;;;;;;10.77;6.40;;;;;;;;;;5039610;28;20029;-54
2024/02/19 07:21:25;;;;;;;12.07;6.88;;;;;;;;;;5042829;28;20184;-53
2024/02/19 07:23:51;;;;;;;14.68;7.10;;;;;;;;;;5049078;28;20059;-57
2024/02/19 07:26:17;;;;;;;10.60;6.20;;;;;;;;;;5031390;28;20021;-54
2024/02/19 07:28:43;;;;;;;12.05;7.47;;;;;;;;;;5047271;28;20100;-53
2024/02/19 07:31:09;;;;;;;10.35;6.13;;;;;;;;;;5064231;28;20470;-53
2024/02/19 07:33:35;;;;;;;10.82;6.38;;;;;;;;;;5048749;28;20013;-52
2024/02/19 07:36:01;;;;;;;16.35;7.80;;;;;;;;;;5048948;28;20028;-52
2024/02/19 07:38:27;;;;;;;11.00;6.85;;;;;;;;;;5048853;28;20471;-55
2024/02/19 07:40:53;;;;;;;11.15;6.53;;;;;;;;;;5049632;28;20033;-57
2024/02/19 07:43:19;;;;;;;10.80;6.30;;;;;;;;;;5048720;28;20027;-52
2024/02/19 07:45:45;;;;;;;10.93;6.53;;;;;;;;;;5044609;28;20025;-55
2024/02/19 07:48:11;;;;;;;10.65;6.28;;;;;;;;;;5028625;28;20511;-51
2024/02/19 07:50:37;;;;;;;11.25;6.65;;;;;;;;;;5027337;28;20033;-53
2024/02/19 07:53:03;;;;;;;11.20;6.60;;;;;;;;;;5028459;28;20061;-55
2024/02/19 07:55:34;;;;;;;11.10;6.50;;;;;;;;;;5028199;28;20026;-51
2024/02/19 07:58:00;;;;;;;10.90;6.47;;;;;;;;;;5028663;28;20091;-50
2024/02/19 08:00:26;;;;;;;9.80;5.78;;;;;;;;;;5028505;28;20039;-56
2024/02/19 08:02:52;;;;;;;10.20;6.30;;;;;;;;;;5028288;28;20524;-57
2024/02/19 08:05:18;;;;;;;19.50;9.52;;;;;;;;;;5028330;28;20025;-52
2024/02/19 08:07:44;;;;;;;9.70;5.70;;;;;;;;;;5038327;28;20105;-53
2024/02/19 08:10:10;;;;;;;10.20;5.90;;;;;;;;;;5049122;28;20459;-53
2024/02/19 08:12:36;;;;;;;11.50;6.32;;;;;;;;;;5048629;28;20021;-56
2024/02/19 08:15:04;;;;;;;9.20;5.50;;;;;;;;;;5050706;28;20033;-58
2024/02/19 08:17:30;;;;;;;9.80;5.80;;;;;;;;;;5051410;28;20064;-55
2024/02/19 08:19:56;;;;;;;10.73;6.85;;;;;;;;;;5051400;28;20021;-60
2024/02/19 08:22:23;;;;;;;10.70;7.10;;;;;;;;;;5050851;28;20060;-55
2024/02/19 08:24:49;;;;;;;13.18;7.55;;;;;;;;;;5048437;28;20060;-51
2024/02/19 08:27:15;;;;;;;16.75;8.15;;;;;;;;;;5048248;28;20498;-54
2024/02/19 08:29:41;;;;;;;21.15;13.95;;;;;;;;;;5047069;28;20032;-54
2024/02/19 08:32:07;;;;;;;11.88;7.40;;;;;;;;;;5048439;28;20467;-53
2024/02/19 08:34:33;;;;;;;12.00;7.88;;;;;;;;;;5048430;28;20029;-51
2024/02/19 08:36:59;;;;;;;10.85;6.55;;;;;;;;;;5048394;28;20043;-49
2024/02/19 08:39:25;;;;;;;14.52;8.50;;;;;;;;;;5048406;28;20025;-49
2024/02/19 08:41:51;;;;;;;12.43;7.40;;;;;;;;;;5048137;28;20032;-53
2024/02/19 08:44:17;;;;;;;10.30;6.13;;;;;;;;;;5047921;28;20029;-54
2024/02/19 08:46:43;;;;;;;13.23;7.45;;;;;;;;;;5048225;28;20052;-55
2024/02/19 08:49:11;;;;;;;12.13;7.22;;;;;;;;;;5046819;28;20375;-54
2024/02/19 08:51:37;;;;;;;10.40;6.30;;;;;;;;;;5048017;28;20039;-52
2024/02/19 08:54:04;;;;;;;10.82;6.60;;;;;;;;;;5047881;28;20028;-50
2024/02/19 08:56:30;;;;;;;10.60;6.30;;;;;;;;;;5048050;28;20066;-55
2024/02/19 08:58:56;;;;;;;10.90;6.40;;;;;;;;;;5046900;28;20167;-54
2024/02/19 09:01:23;;;;;;;10.60;6.25;;;;;;;;;;5047958;28;20098;-54
2024/02/19 09:03:49;;;;;;;12.35;7.70;;;;;;;;;;5047887;28;20043;-53
2024/02/19 09:06:15;;;;;;;10.27;6.07;;;;;;;;;;5048075;28;20426;-54
2024/02/19 09:08:41;;;;;;;10.25;6.00;;;;;;;;;;5050129;28;20036;-55
2024/02/19 09:11:07;;;;;;;13.23;9.45;;;;;;;;;;5050360;28;20657;-52
2024/02/19 09:13:37;;;;;;;14.10;7.55;;;;;;;;;;5051643;28;20017;-56
2024/02/19 09:16:03;;;;;;;11.88;7.85;;;;;;;;;;5051781;28;20029;-55
2024/02/19 09:18:29;;;;;;;10.73;6.57;;;;;;;;;;5051738;28;20021;-47
2024/02/19 09:20:55;;;;;;;13.55;7.43;;;;;;;;;;5051657;28;20375;-52
2024/02/19 09:23:21;;;;;;;17.73;8.48;;;;;;;;;;5051396;28;20084;-52
2024/02/19 09:25:47;;;;;;;12.68;7.00;;;;;;;;;;5051549;28;20017;-54
2024/02/19 09:28:13;;;;;;;12.57;6.90;;;;;;;;;;5051691;28;20371;-56
2024/02/19 09:30:39;;;;;;;10.38;6.10;;;;;;;;;;5051706;28;20029;-53
2024/02/19 09:33:06;;;;;;;11.77;6.60;;;;;;;;;;5049298;28;20083;-56
2024/02/19 09:35:32;;;;;;;11.40;6.70;;;;;;;;;;5051188;28;20013;-51
2024/02/19 09:37:58;;;;;;;12.48;7.57;;;;;;;;;;5044007;28;20530;-55
2024/02/19 09:40:24;;;;;;;12.23;7.55;;;;;;;;;;5031242;28;20056;-53
2024/02/19 09:42:51;;;;;;;10.90;6.40;;;;;;;;;;5044458;28;20029;-59
2024/02/19 09:45:17;;;;;;;11.57;6.85;;;;;;;;;;5039586;28;20654;-58
2024/02/19 09:47:45;;;;;;;12.40;8.10;;;;;;;;;;5031627;28;20040;-52
2024/02/19 09:50:13;;;;;;;10.75;6.30;;;;;;;;;;5031491;28;20037;-53
2024/02/19 09:52:42;;;;;;;11.90;7.53;;;;;;;;;;5031278;28;20021;-56
2024/02/19 09:55:09;;;;;;;12.60;8.02;;;;;;;;;;5031036;28;20432;-48
2024/02/19 09:57:35;;;;;;;12.95;7.75;;;;;;;;;;5030863;28;20403;-56
2024/02/19 10:00:04;;;;;;;12.13;7.20;;;;;;;;;;5030830;28;20388;-55
2024/02/19 10:02:30;;;;;;;25.65;11.60;;;;;;;;;;5030557;28;20021;-52
2024/02/19 10:04:59;;;;;;;12.10;7.30;;;;;;;;;;5030740;28;20040;-52
2024/02/19 10:07:25;;;;;;;12.52;7.38;;;;;;;;;;5030976;28;20025;-53
2024/02/19 10:09:51;;;;;;;14.13;7.75;;;;;;;;;;5030677;28;20109;-53
2024/02/19 10:12:18;;;;;;;12.77;8.20;;;;;;;;;;5043852;28;20103;-54
2024/02/19 10:14:44;;;;;;;16.35;11.02;;;;;;;;;;5050417;28;20031;-53
2024/02/19 10:17:11;;;;;;;11.50;6.78;;;;;;;;;;5050346;28;20036;-51
2024/02/19 10:19:38;;;;;;;14.25;7.18;;;;;;;;;;5049720;28;20021;-52
2024/02/19 10:22:04;;;;;;;13.10;8.65;;;;;;;;;;5050163;28;20102;-57
2024/02/19 10:24:31;;;;;;;12.32;7.45;;;;;;;;;;5050272;28;20044;-54
2024/02/19 10:26:57;;;;;;;11.70;6.90;;;;;;;;;;5051132;28;20490;-54
2024/02/19 10:29:26;;;;;;;12.88;7.30;;;;;;;;;;5050208;28;20025;-50
2024/02/19 10:31:52;;;;;;;14.20;8.15;;;;;;;;;;5049732;28;20497;-54
2024/02/19 10:34:18;;;;;;;12.40;8.43;;;;;;;;;;5049966;28;20032;-54
2024/02/19 10:36:45;;;;;;;12.77;7.50;;;;;;;;;;5049547;28;20054;-53
2024/02/19 10:39:11;;;;;;;15.85;9.80;;;;;;;;;;5049134;28;20407;-51
2024/02/19 10:41:38;;;;;;;11.27;6.65;;;;;;;;;;5049889;28;20029;-54
2024/02/19 10:44:05;;;;;;;11.45;6.72;;;;;;;;;;5048160;28;20041;-54
2024/02/19 10:46:32;;;;;;;10.98;6.45;;;;;;;;;;5049832;28;20024;-54
2024/02/19 10:48:58;;;;;;;11.63;7.10;;;;;;;;;;5048552;28;20120;-54
2024/02/19 10:51:25;;;;;;;12.38;7.55;;;;;;;;;;5050102;28;20025;-50
2024/02/19 10:54:01;;;;;;;11.57;6.75;;;;;;;;;;5049790;28;20296;-55
2024/02/19 10:56:34;;;;;;;11.20;6.50;;;;;;;;;;5050409;28;20435;-54
2024/02/19 10:59:01;;;;;;;10.60;6.30;;;;;;;;;;5049995;28;20035;-53
2024/02/19 11:01:37;;;;;;;10.70;6.30;;;;;;;;;;5049564;28;20029;-55
2024/02/19 11:04:22;;;;;;;11.20;6.50;;;;;;;;;;5049366;28;20402;-51
2024/02/19 11:06:50;;;;;;;30.50;7.95;;;;;;;;;;5049738;28;20411;-52
2024/02/19 11:09:16;;;;;;;11.00;6.50;;;;;;;;;;5049767;28;20021;-54
2024/02/19 11:11:46;;;;;;;10.80;6.35;;;;;;;;;;5049233;28;20367;-53
2024/02/19 11:14:13;;;;;;;11.82;7.03;;;;;;;;;;5049596;28;20067;-54
2024/02/19 11:16:39;;;;;;;14.85;8.10;;;;;;;;;;5049709;28;20123;-52
2024/02/19 11:19:05;;;;;;;19.63;9.02;;;;;;;;;;5049429;28;20100;-54
2024/02/19 11:21:31;;;;;;;13.68;7.30;;;;;;;;;;5049385;28;20503;-52
2024/02/19 11:23:57;;;;;;;10.77;6.38;;;;;;;;;;5049017;28;20112;-52
2024/02/19 11:26:23;;;;;;;15.18;8.85;;;;;;;;;;5049262;28;20055;-54
2024/02/19 11:28:54;;;;;;;12.07;7.18;;;;;;;;;;5049298;28;20017;-51
2024/02/19 11:31:20;;;;;;;11.00;6.50;;;;;;;;;;5048428;28;20040;-58
2024/02/19 11:33:50;;;;;;;11.48;6.70;;;;;;;;;;5048641;28;20025;-57
2024/02/19 11:36:16;;;;;;;12.82;7.57;;;;;;;;;;5048857;28;20054;-55
2024/02/19 11:38:42;;;;;;;14.52;10.23;;;;;;;;;;5048656;28;20388;-53
2024/02/19 11:41:11;;;;;;;14.98;8.98;;;;;;;;;;5048960;28;20073;-51
2024/02/19 11:43:40;;;;;;;10.60;6.30;;;;;;;;;;5048649;28;20387;-55
2024/02/19 11:46:07;;;;;;;11.20;6.60;;;;;;;;;;5048564;28;20425;-49
2024/02/19 11:48:35;;;;;;;13.05;7.78;;;;;;;;;;5048752;28;20038;-54
2024/02/19 11:51:04;;;;;;;;;;;;;;;;;;5049371;28;20032;-55
2024/02/19 11:53:31;;;;;;;13.00;7.72;;;;;;;;;;5048805;28;19916;-56
2024/02/19 11:56:03;;;;;;;12.77;7.85;;;;;;;;;;5048590;28;20091;-57
2024/02/19 11:58:30;;;;;;;13.65;8.07;;;;;;;;;;5048657;28;20143;-52
2024/02/19 12:00:57;;;;;;;17.08;8.25;;;;;;;;;;5048653;28;20025;-50
2024/02/19 12:03:26;;;;;;;11.60;6.85;;;;;;;;;;5048459;28;20044;-53
2024/02/19 12:05:53;;;;;;;14.27;7.97;;;;;;;;;;5048254;28;20476;-53
2024/02/19 12:08:19;;;;;;;14.65;8.85;;;;;;;;;;5048471;28;20095;-50
2024/02/19 12:10:45;;;;;;;11.55;6.85;;;;;;;;;;5048501;28;20468;-51
2024/02/19 12:13:11;;;;;;;11.48;6.75;;;;;;;;;;5052626;28;20021;-53
2024/02/19 12:15:37;;;;;;;11.50;6.80;;;;;;;;;;5066838;28;20055;-54
2024/02/19 12:18:03;;;;;;;11.90;6.90;;;;;;;;;;5068849;28;20074;-54
2024/02/19 12:20:29;;;;;;;11.35;6.93;;;;;;;;;;5067512;28;20028;-55
2024/02/19 12:22:55;;;;;;;12.50;7.03;;;;;;;;;;5059284;28;20035;-49
2024/02/19 12:25:24;;;;;;;13.60;7.78;;;;;;;;;;5048130;28;20421;-53
2024/02/19 12:27:49;;;;;;;15.25;8.30;;;;;;;;;;5046763;28;20517;-54
2024/02/19 12:30:15;;;;;;;11.00;6.40;;;;;;;;;;5048256;28;20021;-49
2024/02/19 12:32:43;;;;;;;11.95;6.90;;;;;;;;;;5048105;28;20093;-52
2024/02/19 12:35:09;;;;;;;16.05;8.10;;;;;;;;;;5047320;28;20017;-56
2024/02/19 12:37:35;;;;;;;11.18;6.90;;;;;;;;;;5047667;28;20412;-56
2024/02/19 12:40:02;;;;;;;10.95;6.85;;;;;;;;;;5048282;28;20068;-52
2024/02/19 12:42:28;;;;;;;12.27;6.72;;;;;;;;;;5048995;28;20028;-52
2024/02/19 12:44:54;;;;;;;12.00;8.15;;;;;;;;;;5066742;22;20124;-60
2024/02/19 12:47:20;;;;;;;12.30;7.65;;;;;;;;;;5032610;28;20033;-59
2024/02/19 12:49:46;;;;;;;22.63;8.15;;;;;;;;;;5032082;28;20029;-57
2024/02/19 12:52:12;;;;;;;12.52;7.78;;;;;;;;;;5033033;28;20052;-56
2024/02/19 12:54:41;;;;;;;13.15;7.85;;;;;;;;;;5033284;28;20097;-56
2024/02/19 12:57:09;;;;;;;11.95;7.13;;;;;;;;;;5032041;28;20052;-57
2024/02/19 12:59:35;;;;;;;12.38;7.20;;;;;;;;;;5032899;28;20411;-63
2024/02/19 13:02:01;;;;;;;13.40;7.53;;;;;;;;;;5032451;28;20025;-61
2024/02/19 13:04:27;;;;;;;15.93;8.45;;;;;;;;;;5032474;28;20028;-55
2024/02/19 13:06:55;;;;;;;11.07;6.32;;;;;;;;;;5032241;28;20029;-56
2024/02/19 13:09:21;;;;;;;12.15;7.03;;;;;;;;;;5032449;28;20079;-58
2024/02/19 13:11:47;;;;;;;19.27;6.90;;;;;;;;;;5028161;28;20108;-56
2024/02/19 13:14:13;;;;;;;12.50;7.72;;;;;;;;;;5037842;28;20381;-53
2024/02/19 13:16:39;;;;;;;11.07;6.55;;;;;;;;;;5021526;28;20041;-57
2024/02/19 13:19:06;;;;;;;12.18;7.35;;;;;;;;;;5025952;28;20086;-57
2024/02/19 13:21:32;;;;;;;13.32;8.45;;;;;;;;;;5032278;28;20028;-55
2024/02/19 13:23:58;;;;;;;11.77;7.38;;;;;;;;;;5031940;28;20174;-59
2024/02/19 13:26:23;;;;;;;13.38;8.27;;;;;;;;;;5032014;28;20033;-59
2024/02/19 13:28:49;;;;;;;11.13;6.57;;;;;;;;;;5030964;28;20514;-54
2024/02/19 13:31:17;;;;;;;12.60;7.70;;;;;;;;;;5032002;28;20028;-54
2024/02/19 13:33:44;;;;;;;11.05;6.50;;;;;;;;;;5030378;28;20021;-55
2024/02/19 13:36:10;;;;;;;11.90;7.13;;;;;;;;;;5031926;28;20029;-57
2024/02/19 13:38:36;;;;;;;13.68;8.43;;;;;;;;;;5032002;28;20052;-58
2024/02/19 13:41:04;;;;;;;12.73;7.45;;;;;;;;;;5032127;28;20026;-59
2024/02/19 13:43:31;;;;;;;12.87;8.53;;;;;;;;;;5032180;28;20385;-57
2024/02/19 13:45:59;;;;;;;14.57;8.45;;;;;;;;;;5031812;28;20037;-58
2024/02/19 13:48:25;;;;;;;13.07;7.30;;;;;;;;;;5031525;28;20025;-58
2024/02/19 13:50:58;;;;;;;12.85;7.30;;;;;;;;;;5031755;28;20032;-54
2024/02/19 13:53:25;;;;;;;11.52;6.88;;;;;;;;;;5031341;28;20037;-54
2024/02/19 13:55:51;;;;;;;12.13;7.25;;;;;;;;;;5032427;28;20032;-58
2024/02/19 13:58:17;;;;;;;11.07;6.50;;;;;;;;;;5030941;28;20510;-58
2024/02/19 14:00:43;;;;;;;11.60;6.82;;;;;;;;;;5030726;28;20029;-53
2024/02/19 14:03:13;;;;;;;13.07;8.45;;;;;;;;;;5030664;28;20060;-59
2024/02/19 14:05:39;;;;;;;17.33;9.63;;;;;;;;;;5011290;28;20060;-57
2024/02/19 14:08:05;;;;;;;11.90;7.05;;;;;;;;;;5028447;28;20061;-59
2024/02/19 14:10:32;;;;;;;11.45;6.80;;;;;;;;;;5031673;28;20087;-57
2024/02/19 14:12:59;;;;;;;14.82;8.63;;;;;;;;;;5031896;28;20017;-58
2024/02/19 14:15:25;;;;;;;12.65;7.30;;;;;;;;;;5031499;28;20025;-62
2024/02/19 14:17:52;;;;;;;11.30;6.70;;;;;;;;;;5031980;28;20105;-66
2024/02/19 14:20:19;;;;;;;11.90;7.10;;;;;;;;;;5030776;28;20072;-58
2024/02/19 14:22:45;;;;;;;12.10;7.20;;;;;;;;;;5031301;28;20399;-54